Terminal Aerodrome Forecast
Issued by NWS Duluth, MN

Home | Current Version | Previous Version | Text Only | Print | Product List | Glossary On
Versions: 1 2 3 4 5 6 7 8 9 10 11 12 13 14 15 16 17 18 19 20 21 22 23 24 25 26 27
277
FTUS43 KDLH 042011 AAB
TAFDLH
TAF AMD
KDLH 042011Z 0420/0518 15009KT 5SM BR OVC005
     FM042300 19006KT P6SM VCSH OVC003
     FM050200 23007KT P6SM OVC003
     FM050500 26008KT P6SM BKN010
     FM051200 21006KT P6SM BKN008
     FM051600 14006KT P6SM BKN010=

USA.gov is the U.S. government's official web portal to all federal, state and local government web resources and services.